createdAt,value
2022-11-14T00:01:53.419Z,49
2022-11-14T00:11:55.831Z,49
2022-11-14T00:21:57.803Z,49
2022-11-14T00:31:59.532Z,49
2022-11-14T00:42:01.801Z,49
2022-11-14T00:52:04.190Z,49
2022-11-14T01:02:06.759Z,49
2022-11-14T01:12:09.246Z,49
2022-11-14T01:22:11.496Z,49
2022-11-14T01:32:13.651Z,49
2022-11-14T01:42:17.539Z,49
2022-11-14T01:52:18.589Z,49
2022-11-14T02:02:20.265Z,49
2022-11-14T02:12:22.354Z,49
2022-11-14T02:22:24.784Z,49
2022-11-14T02:32:26.552Z,49
2022-11-14T02:42:28.811Z,49
2022-11-14T02:52:30.791Z,49
2022-11-14T03:02:32.835Z,49
2022-11-14T03:12:35.172Z,49
2022-11-14T03:32:38.828Z,50
2022-11-14T03:42:40.823Z,50
2022-11-14T03:52:42.705Z,50
2022-11-14T04:22:49.091Z,50
2022-11-14T04:42:53.316Z,50
2022-11-14T04:52:55.294Z,50
2022-11-14T05:02:57.507Z,50
2022-11-14T05:12:59.268Z,50
2022-11-14T05:23:01.222Z,50
2022-11-14T05:33:03.196Z,50
2022-11-14T05:43:05.319Z,50
2022-11-14T05:53:07.350Z,50
2022-11-14T06:03:09.991Z,50
2022-11-14T06:13:11.807Z,50
2022-11-14T06:23:13.669Z,50
2022-11-14T06:33:15.462Z,50
2022-11-14T06:43:17.809Z,49
2022-11-14T06:53:20.412Z,42
2022-11-14T07:03:22.253Z,40
2022-11-14T07:13:24.697Z,46
2022-11-14T07:23:27.028Z,53
2022-11-14T07:33:29.006Z,59
2022-11-14T07:43:30.763Z,62
2022-11-14T07:53:32.871Z,64
2022-11-14T08:03:35.286Z,65
2022-11-14T08:13:37.934Z,67
2022-11-14T08:23:40.329Z,68
2022-11-14T08:33:42.781Z,69
2022-11-14T08:53:47.392Z,70
2022-11-14T09:03:49.391Z,71
2022-11-14T09:13:50.998Z,71
2022-11-14T09:23:56.202Z,71
2022-11-14T09:33:55.570Z,72
2022-11-14T09:43:57.999Z,71
2022-11-14T09:53:59.982Z,71
2022-11-14T10:04:05.897Z,72
2022-11-14T10:14:04.611Z,73
2022-11-14T10:24:06.424Z,72
2022-11-14T10:34:08.208Z,72
2022-11-14T10:44:10.633Z,73
2022-11-14T10:54:12.759Z,71
2022-11-14T11:04:14.706Z,69
2022-11-14T11:14:16.418Z,69
2022-11-14T11:24:18.841Z,69
2022-11-14T11:34:21.256Z,67
2022-11-14T11:44:23.660Z,67
2022-11-14T11:54:25.753Z,66
2022-11-14T12:04:28.242Z,66
2022-11-14T12:14:30.029Z,65
2022-11-14T12:24:32.152Z,65
2022-11-14T12:34:34.570Z,65
2022-11-14T12:54:39.095Z,65
2022-11-14T13:04:41.359Z,64
2022-11-14T13:14:43.276Z,64
2022-11-14T13:24:45.232Z,64
2022-11-14T13:34:47.319Z,65
2022-11-14T13:44:49.822Z,64
2022-11-14T13:54:51.677Z,65
2022-11-14T13:55:15.537Z,65
2022-11-14T14:05:00.776Z,65
2022-11-14T14:15:02.480Z,66
2022-11-14T14:25:05.009Z,67
2022-11-14T14:35:06.814Z,66
2022-11-14T14:45:09.463Z,66
2022-11-14T14:55:12.054Z,67
2022-11-14T15:05:14.297Z,67
2022-11-14T15:15:16.889Z,68
2022-11-14T15:25:18.920Z,69
2022-11-14T15:35:24.985Z,69
2022-11-14T15:45:23.643Z,69
2022-11-14T15:55:26.212Z,68
2022-11-14T16:05:28.709Z,68
2022-11-14T16:15:30.372Z,68
2022-11-14T16:25:32.502Z,68
2022-11-14T16:35:34.934Z,68
2022-11-14T16:45:37.566Z,68
2022-11-14T16:55:39.639Z,68
2022-11-14T17:05:41.417Z,69
2022-11-14T17:15:43.307Z,70
2022-11-14T17:25:45.517Z,71
2022-11-14T17:35:47.774Z,71
2022-11-14T17:45:49.703Z,72
2022-11-14T17:55:51.389Z,72
2022-11-14T18:05:53.098Z,72
2022-11-14T18:15:54.776Z,73
2022-11-14T18:46:00.470Z,73
2022-11-14T18:56:02.912Z,73
2022-11-14T19:06:04.940Z,72
2022-11-14T19:16:07.364Z,73
2022-11-14T19:26:09.356Z,72
2022-11-14T19:36:11.930Z,72
2022-11-14T19:46:14.239Z,72
2022-11-14T19:56:16.149Z,73
2022-11-14T20:16:20.585Z,72
2022-11-14T20:46:27.212Z,73
2022-11-14T20:56:28.924Z,73
2022-11-14T21:36:45.748Z,76
2022-11-14T21:46:39.974Z,75
2022-11-14T22:46:53.470Z,74
2022-11-14T22:56:56.132Z,74
2022-11-14T23:06:58.411Z,74
2022-11-14T23:17:00.732Z,74
2022-11-14T23:37:04.736Z,74
2022-11-14T23:47:06.934Z,74
2022-11-14T23:57:09.114Z,75
